createdAt,value
2022-08-26T00:00:10.810Z,0.00
2022-08-26T00:01:10.830Z,0.00
2022-08-26T00:02:10.853Z,0.00
2022-08-26T00:03:10.782Z,0.00
2022-08-26T00:04:10.914Z,0.00
2022-08-26T00:05:10.780Z,0.00
2022-08-26T00:06:10.764Z,0.00
2022-08-26T00:07:10.751Z,0.00
2022-08-26T00:08:10.729Z,0.00
2022-08-26T00:09:10.710Z,0.00
2022-08-26T00:10:10.729Z,0.00
2022-08-26T00:11:10.694Z,0.00
2022-08-26T00:12:12.289Z,0.00
2022-08-26T00:13:10.670Z,0.00
2022-08-26T00:14:10.657Z,0.00
2022-08-26T00:15:10.661Z,0.00
2022-08-26T00:16:10.698Z,0.00
2022-08-26T00:17:10.630Z,0.00
2022-08-26T00:18:21.867Z,0.00
2022-08-26T00:19:10.607Z,0.00
2022-08-26T00:20:10.609Z,0.00
2022-08-26T00:21:10.588Z,0.00
2022-08-26T00:22:10.583Z,0.00
2022-08-26T00:23:10.562Z,0.00
2022-08-26T00:24:10.551Z,0.00
2022-08-26T00:25:10.576Z,0.00
2022-08-26T00:26:11.008Z,0.00
2022-08-26T00:27:10.522Z,0.00
2022-08-26T00:28:10.914Z,0.00
2022-08-26T00:29:10.519Z,0.00
2022-08-26T00:30:10.511Z,0.00
2022-08-26T00:31:11.146Z,0.00
2022-08-26T00:32:10.457Z,0.00
2022-08-26T00:33:10.683Z,0.00
2022-08-26T00:34:11.348Z,0.00
2022-08-26T00:35:10.463Z,0.00
2022-08-26T00:36:16.120Z,0.00
2022-08-26T00:37:13.417Z,0.00
2022-08-26T00:38:10.392Z,0.00
2022-08-26T00:39:10.381Z,0.00
2022-08-26T00:40:10.429Z,0.00
2022-08-26T00:41:11.122Z,0.00
2022-08-26T00:42:10.369Z,0.00
2022-08-26T00:43:10.365Z,0.00
2022-08-26T00:44:10.327Z,0.00
2022-08-26T00:45:11.756Z,0.00
2022-08-26T00:47:19.281Z,0.00
2022-08-26T00:48:20.273Z,0.00
2022-08-26T00:49:20.252Z,0.00
2022-08-26T00:50:20.241Z,0.00
2022-08-26T00:51:20.233Z,0.00
2022-08-26T00:52:20.235Z,0.00
2022-08-26T00:53:20.230Z,0.00
2022-08-26T00:54:20.209Z,0.00
2022-08-26T00:55:20.548Z,0.00
2022-08-26T00:56:20.229Z,0.00
2022-08-26T00:57:20.182Z,0.00
2022-08-26T00:58:20.153Z,0.00
2022-08-26T00:59:20.157Z,0.00
2022-08-26T01:00:20.141Z,0.00
2022-08-26T01:01:23.023Z,0.00
2022-08-26T01:02:21.477Z,0.00
2022-08-26T01:03:20.102Z,0.00
2022-08-26T01:04:20.115Z,0.00
2022-08-26T01:05:20.090Z,0.00
2022-08-26T01:06:20.070Z,0.00
2022-08-26T01:07:20.066Z,0.00
2022-08-26T01:08:20.045Z,0.00
2022-08-26T01:09:20.038Z,0.00
2022-08-26T01:10:20.031Z,0.00
2022-08-26T01:11:20.022Z,0.00
2022-08-26T01:12:22.228Z,0.00
2022-08-26T01:13:20.137Z,0.00
2022-08-26T01:14:20.219Z,0.00
2022-08-26T01:15:19.966Z,0.00
2022-08-26T01:16:20.041Z,0.00
2022-08-26T01:17:19.946Z,0.00
2022-08-26T01:18:19.954Z,0.00
2022-08-26T01:19:19.923Z,0.00
2022-08-26T01:20:19.927Z,0.00
2022-08-26T01:21:19.908Z,0.00
2022-08-26T01:22:19.884Z,0.00
2022-08-26T01:23:21.727Z,0.00
2022-08-26T01:24:19.869Z,0.00
2022-08-26T01:25:19.851Z,0.00
2022-08-26T01:26:20.193Z,0.00
2022-08-26T01:27:19.857Z,0.00
2022-08-26T01:28:19.825Z,0.00
2022-08-26T01:29:20.180Z,0.00
2022-08-26T01:30:19.801Z,0.00
2022-08-26T01:31:19.876Z,0.00
2022-08-26T01:32:19.784Z,0.00
2022-08-26T01:33:19.773Z,0.00
2022-08-26T01:34:19.755Z,0.00
2022-08-26T01:35:19.757Z,0.00
2022-08-26T01:36:19.767Z,0.00
2022-08-26T01:37:19.782Z,0.00
2022-08-26T01:38:19.706Z,0.00
2022-08-26T01:39:19.701Z,0.00
2022-08-26T01:40:19.768Z,0.00
2022-08-26T01:41:27.089Z,0.00
2022-08-26T01:42:19.665Z,0.00
2022-08-26T01:43:19.657Z,0.00
2022-08-26T01:44:19.642Z,0.00
2022-08-26T01:45:19.691Z,0.00
2022-08-26T01:46:19.640Z,0.00
2022-08-26T01:47:19.637Z,0.00
2022-08-26T01:48:19.607Z,0.00
2022-08-26T01:49:19.600Z,0.00
2022-08-26T01:50:27.673Z,0.00
2022-08-26T01:51:19.566Z,0.00
2022-08-26T01:52:19.553Z,0.00
2022-08-26T01:53:19.567Z,0.00
2022-08-26T01:54:20.526Z,0.00
2022-08-26T01:55:32.050Z,0.00
2022-08-26T01:56:19.528Z,0.00
2022-08-26T01:57:19.518Z,0.00
2022-08-26T01:58:19.499Z,0.00
2022-08-26T01:59:19.487Z,0.00
2022-08-26T02:00:19.468Z,0.00
2022-08-26T02:01:19.503Z,0.00
2022-08-26T02:02:19.459Z,0.00
2022-08-26T02:03:19.436Z,0.00
2022-08-26T02:04:19.456Z,0.00
2022-08-26T02:05:19.414Z,0.00
2022-08-26T02:06:19.423Z,0.00
2022-08-26T02:07:19.389Z,0.00
2022-08-26T02:08:24.512Z,0.00
2022-08-26T02:09:19.372Z,0.00
2022-08-26T02:10:19.806Z,0.00
2022-08-26T02:11:19.386Z,0.00
2022-08-26T02:12:19.351Z,0.00
2022-08-26T02:13:19.340Z,0.00
2022-08-26T02:14:19.323Z,0.00
2022-08-26T02:15:19.315Z,0.00
2022-08-26T02:16:19.329Z,0.00
2022-08-26T02:17:19.295Z,0.00
2022-08-26T02:18:19.289Z,0.00
2022-08-26T02:19:19.259Z,0.00
2022-08-26T02:20:19.272Z,0.00
2022-08-26T02:21:19.239Z,0.00
2022-08-26T02:22:19.228Z,0.00
2022-08-26T02:23:19.211Z,0.00
2022-08-26T02:24:19.217Z,0.00
2022-08-26T02:25:19.206Z,0.00
2022-08-26T02:26:19.457Z,0.00
2022-08-26T02:27:19.185Z,0.00
2022-08-26T02:28:19.730Z,0.00
2022-08-26T02:29:19.162Z,0.00
2022-08-26T02:30:19.158Z,0.00
2022-08-26T02:31:19.238Z,0.00
2022-08-26T02:32:19.113Z,0.00
2022-08-26T02:33:19.164Z,0.00
2022-08-26T02:34:19.087Z,0.00
2022-08-26T02:35:20.211Z,0.00
2022-08-26T02:36:19.075Z,0.00
2022-08-26T02:37:19.058Z,0.00
2022-08-26T02:38:19.071Z,0.00
2022-08-26T02:39:21.998Z,0.00
2022-08-26T02:40:19.120Z,0.00
2022-08-26T02:41:19.015Z,0.00
2022-08-26T02:42:19.045Z,0.00
2022-08-26T02:43:19.013Z,0.00
2022-08-26T02:44:18.981Z,0.00
2022-08-26T02:45:23.378Z,0.00
2022-08-26T02:46:28.054Z,0.00
2022-08-26T02:48:27.927Z,0.00
2022-08-26T02:49:28.891Z,0.00
2022-08-26T02:50:28.885Z,0.00
2022-08-26T02:51:28.883Z,0.00
2022-08-26T02:52:28.865Z,0.00
2022-08-26T02:53:31.700Z,0.00
2022-08-26T02:54:28.835Z,0.00
2022-08-26T02:55:28.824Z,0.00
2022-08-26T02:56:28.839Z,0.00
2022-08-26T02:57:28.827Z,0.00
2022-08-26T02:58:28.799Z,0.00
2022-08-26T02:59:28.788Z,0.00
2022-08-26T03:00:28.909Z,0.00
2022-08-26T03:01:28.808Z,0.00
2022-08-26T03:02:28.799Z,0.00
2022-08-26T03:03:28.749Z,0.00
2022-08-26T03:04:28.746Z,0.00
2022-08-26T03:05:28.721Z,0.00
2022-08-26T03:06:28.713Z,0.00
2022-08-26T03:07:28.711Z,0.00
2022-08-26T03:08:28.685Z,0.00
2022-08-26T03:09:28.908Z,0.00
2022-08-26T03:10:28.677Z,0.00
2022-08-26T03:11:33.030Z,0.00
2022-08-26T03:12:28.667Z,0.00
2022-08-26T03:13:28.652Z,0.00
2022-08-26T03:14:28.633Z,0.00
2022-08-26T03:15:28.612Z,0.00
2022-08-26T03:16:32.465Z,0.00
2022-08-26T03:17:28.634Z,0.00
2022-08-26T03:18:28.579Z,0.00
2022-08-26T03:19:28.568Z,0.00
2022-08-26T03:20:28.558Z,0.00
2022-08-26T03:21:28.552Z,0.00
2022-08-26T03:22:28.549Z,0.00
2022-08-26T03:23:28.559Z,0.00
2022-08-26T03:24:28.515Z,0.00
2022-08-26T03:25:28.514Z,0.00
2022-08-26T03:26:28.493Z,0.00
2022-08-26T03:27:28.502Z,0.00
2022-08-26T03:28:28.474Z,0.00
2022-08-26T03:29:28.466Z,0.00
2022-08-26T03:30:28.453Z,0.00
2022-08-26T03:31:28.487Z,0.00
2022-08-26T03:32:28.470Z,0.00
2022-08-26T03:33:28.419Z,0.00
2022-08-26T03:34:28.403Z,0.00
2022-08-26T03:35:28.411Z,0.00
2022-08-26T03:36:28.381Z,0.00
2022-08-26T03:37:28.393Z,0.00
2022-08-26T03:38:28.362Z,0.00
2022-08-26T03:39:28.354Z,0.00
2022-08-26T03:40:29.047Z,0.00
2022-08-26T03:41:28.331Z,0.00
2022-08-26T03:42:28.339Z,0.00
2022-08-26T03:43:28.312Z,0.00
2022-08-26T03:44:28.308Z,0.00
2022-08-26T03:45:28.300Z,0.00
2022-08-26T03:46:28.364Z,0.00
2022-08-26T03:47:28.271Z,0.00
2022-08-26T03:48:28.268Z,0.00
2022-08-26T03:49:28.971Z,0.00
2022-08-26T03:50:28.558Z,0.00
2022-08-26T03:51:28.223Z,0.00
2022-08-26T03:52:28.214Z,0.00
2022-08-26T03:53:28.224Z,0.00
2022-08-26T03:54:28.192Z,4.00
2022-08-26T03:55:28.177Z,4.00
2022-08-26T03:56:28.175Z,0.00
2022-08-26T03:57:28.159Z,4.00
2022-08-26T03:58:28.143Z,4.00
2022-08-26T03:59:28.150Z,4.00
2022-08-26T04:00:28.139Z,4.00
2022-08-26T04:01:28.197Z,8.00
2022-08-26T04:02:28.194Z,8.00
2022-08-26T04:03:28.167Z,8.00
2022-08-26T04:04:28.099Z,8.00
2022-08-26T04:05:28.320Z,12.00
2022-08-26T04:06:28.061Z,12.00
2022-08-26T04:07:28.045Z,12.00
2022-08-26T04:08:28.168Z,16.00
2022-08-26T04:09:28.034Z,16.00
2022-08-26T04:10:28.955Z,20.00
2022-08-26T04:11:28.005Z,28.00
2022-08-26T04:12:28.003Z,28.00
2022-08-26T04:13:28.004Z,36.00
2022-08-26T04:14:27.985Z,40.00
2022-08-26T04:15:27.962Z,44.00
2022-08-26T04:16:28.031Z,48.00
2022-08-26T04:17:27.944Z,56.00
2022-08-26T04:18:32.661Z,64.00
2022-08-26T04:19:27.920Z,72.00
2022-08-26T04:20:27.908Z,80.00
2022-08-26T04:21:27.901Z,88.00
2022-08-26T04:22:27.903Z,100.00
2022-08-26T04:23:27.896Z,108.00
2022-08-26T04:24:27.992Z,124.00
2022-08-26T04:25:27.850Z,136.00
2022-08-26T04:26:27.864Z,148.00
2022-08-26T04:27:27.831Z,164.00
2022-08-26T04:28:27.838Z,180.00
2022-08-26T04:29:27.807Z,196.00
2022-08-26T04:30:27.801Z,216.00
2022-08-26T04:31:27.872Z,232.00
2022-08-26T04:32:27.789Z,248.00
2022-08-26T04:33:32.312Z,268.00
2022-08-26T04:34:28.521Z,288.00
2022-08-26T04:35:27.743Z,308.00
2022-08-26T04:36:27.741Z,328.00
2022-08-26T04:37:27.741Z,348.00
2022-08-26T04:38:28.407Z,368.00
2022-08-26T04:39:27.972Z,388.00
2022-08-26T04:40:27.814Z,412.00
2022-08-26T04:41:27.683Z,432.00
2022-08-26T04:42:27.672Z,460.00
2022-08-26T04:43:27.675Z,484.00
2022-08-26T04:44:27.682Z,512.00
2022-08-26T04:45:27.640Z,540.00
2022-08-26T04:46:27.726Z,568.00
2022-08-26T04:47:32.096Z,600.00
2022-08-26T04:49:36.576Z,656.00
2022-08-26T04:50:37.553Z,680.00
2022-08-26T04:51:37.546Z,708.00
2022-08-26T04:52:37.527Z,736.00
2022-08-26T04:53:37.530Z,772.00
2022-08-26T04:54:37.546Z,808.00
2022-08-26T04:55:38.397Z,848.00
2022-08-26T04:56:37.496Z,884.00
2022-08-26T04:57:37.472Z,924.00
2022-08-26T04:58:37.475Z,956.00
2022-08-26T04:59:39.450Z,984.00
2022-08-26T05:00:37.459Z,1012.00
2022-08-26T05:01:39.498Z,1040.00
2022-08-26T05:02:37.420Z,1064.00
2022-08-26T05:03:37.483Z,1096.00
2022-08-26T05:04:37.438Z,1136.00
2022-08-26T05:05:37.389Z,1188.00
2022-08-26T05:06:37.375Z,1248.00
2022-08-26T05:07:37.382Z,1312.00
2022-08-26T05:08:37.357Z,1380.00
2022-08-26T05:09:37.354Z,1448.00
2022-08-26T05:10:37.328Z,1504.00
2022-08-26T05:11:37.326Z,1560.00
2022-08-26T05:12:37.305Z,1608.00
2022-08-26T05:13:37.300Z,1660.00
2022-08-26T05:14:37.297Z,1712.00
2022-08-26T05:15:37.336Z,1760.00
2022-08-26T05:16:37.270Z,1808.00
2022-08-26T05:17:37.257Z,1848.00
2022-08-26T05:18:37.239Z,1872.00
2022-08-26T05:19:37.246Z,1908.00
2022-08-26T05:20:37.217Z,1940.00
2022-08-26T05:21:37.210Z,1968.00
2022-08-26T05:22:37.201Z,1988.00
2022-08-26T05:23:37.184Z,2016.00
2022-08-26T05:24:37.194Z,2048.00
2022-08-26T05:25:37.185Z,2084.00
2022-08-26T05:26:37.177Z,2124.00
2022-08-26T05:27:37.151Z,2156.00
2022-08-26T05:28:37.131Z,2160.00
2022-08-26T05:29:37.124Z,2136.00
2022-08-26T05:30:37.123Z,2116.00
2022-08-26T05:31:37.114Z,2132.00
2022-08-26T05:32:37.099Z,2176.00
2022-08-26T05:33:37.078Z,2240.00
2022-08-26T05:34:37.063Z,2344.00
2022-08-26T05:35:37.402Z,2444.00
2022-08-26T05:36:37.171Z,2556.00
2022-08-26T05:37:37.028Z,2740.00
2022-08-26T05:38:37.028Z,2976.00
2022-08-26T05:39:37.043Z,3200.00
2022-08-26T05:40:37.099Z,3368.00
2022-08-26T05:41:38.389Z,3548.00
2022-08-26T05:42:36.973Z,3780.00
2022-08-26T05:43:36.959Z,3904.00
2022-08-26T05:44:55.642Z,3972.00
2022-08-26T05:45:36.968Z,3988.00
2022-08-26T05:46:37.042Z,3928.00
2022-08-26T05:47:36.930Z,3904.00
2022-08-26T05:48:36.918Z,3920.00
2022-08-26T05:49:36.949Z,4056.00
2022-08-26T05:50:36.892Z,4216.00
2022-08-26T05:51:36.886Z,4292.00
2022-08-26T05:52:36.880Z,4376.00
2022-08-26T05:53:36.850Z,4580.00
2022-08-26T05:54:36.888Z,4740.00
2022-08-26T05:55:36.835Z,4732.00
2022-08-26T05:56:36.839Z,4844.00
2022-08-26T05:57:42.248Z,5088.00
2022-08-26T05:58:36.838Z,5220.00
2022-08-26T05:59:36.850Z,5464.00
2022-08-26T06:00:36.969Z,5728.00
2022-08-26T06:01:36.817Z,5928.00
2022-08-26T06:02:36.821Z,6100.00
2022-08-26T06:03:36.758Z,5960.00
2022-08-26T06:08:45.297Z,6664.00
2022-08-26T06:17:38.459Z,7984.00
2022-08-26T06:44:44.727Z,10180.00
2022-08-26T06:47:56.772Z,10436.00
2022-08-26T06:48:08.144Z,10576.00
2022-08-26T06:48:46.862Z,10592.00
2022-08-26T06:48:58.684Z,10348.00
2022-08-26T06:49:10.934Z,8804.00
2022-08-26T06:49:10.937Z,8712.00
2022-08-26T06:49:45.700Z,10004.00
2022-08-26T06:50:08.241Z,9900.00
2022-08-26T06:50:14.356Z,9772.00
2022-08-26T06:50:45.686Z,10716.00
2022-08-26T06:50:49.949Z,10492.00
2022-08-26T06:51:46.192Z,10884.00
2022-08-26T06:52:46.202Z,10840.00
2022-08-26T06:53:46.161Z,11148.00
2022-08-26T06:54:46.201Z,11132.00
2022-08-26T06:55:46.209Z,10772.00
2022-08-26T06:56:46.275Z,11024.00
2022-08-26T06:57:46.122Z,10832.00
2022-08-26T06:58:46.209Z,10708.00
2022-08-26T06:59:46.116Z,11400.00
2022-08-26T07:00:47.479Z,11404.00
2022-08-26T07:05:11.863Z,9728.00
2022-08-26T07:11:19.285Z,11984.00
2022-08-26T07:12:02.087Z,12488.00
2022-08-26T07:15:15.742Z,12300.00
2022-08-26T07:15:19.892Z,11164.00
2022-08-26T07:20:43.231Z,11148.00
2022-08-26T08:14:00.598Z,18496.00
2022-08-26T08:15:01.590Z,19424.00
2022-08-26T08:16:01.570Z,20736.00
2022-08-26T08:17:01.797Z,21280.00
2022-08-26T08:18:01.737Z,21504.00
2022-08-26T08:19:01.972Z,21600.00
2022-08-26T08:20:01.532Z,21824.00
2022-08-26T08:21:20.986Z,21792.00
2022-08-26T08:22:01.531Z,21952.00
2022-08-26T08:23:01.480Z,21888.00
2022-08-26T08:24:01.482Z,21824.00
2022-08-26T08:25:01.468Z,21952.00
2022-08-26T08:26:01.464Z,21664.00
2022-08-26T08:27:01.433Z,20352.00
2022-08-26T08:28:01.449Z,20672.00
2022-08-26T08:29:01.481Z,21440.00
2022-08-26T08:30:01.408Z,22368.00
2022-08-26T08:31:01.498Z,22496.00
2022-08-26T08:32:01.474Z,21664.00
2022-08-26T08:33:01.396Z,21184.00
2022-08-26T08:34:01.392Z,20864.00
2022-08-26T08:35:01.450Z,21792.00
2022-08-26T08:36:01.358Z,21920.00
2022-08-26T08:37:01.593Z,21728.00
2022-08-26T08:38:01.477Z,21920.00
2022-08-26T08:39:01.339Z,21568.00
2022-08-26T08:40:01.374Z,21760.00
2022-08-26T08:41:01.290Z,22464.00
2022-08-26T08:42:01.389Z,21728.00
2022-08-26T08:43:01.333Z,20928.00
2022-08-26T08:44:02.481Z,20704.00
2022-08-26T08:45:01.282Z,21120.00
2022-08-26T08:46:01.275Z,21888.00
2022-08-26T08:47:01.261Z,22368.00
2022-08-26T08:48:01.263Z,23040.00
2022-08-26T08:49:01.288Z,23360.00
2022-08-26T08:50:01.233Z,23232.00
2022-08-26T08:51:01.512Z,23136.00
2022-08-26T08:52:01.207Z,22944.00
2022-08-26T08:58:59.055Z,20416.00
2022-08-26T09:00:00.029Z,19776.00
2022-08-26T09:01:00.074Z,19072.00
2022-08-26T09:02:00.092Z,19264.00
2022-08-26T09:05:04.957Z,23296.00
2022-08-26T09:10:11.948Z,24768.00
2022-08-26T09:12:41.389Z,23520.00
2022-08-26T09:14:44.005Z,23744.00
2022-08-26T09:14:59.724Z,23392.00
2022-08-26T09:14:59.867Z,21344.00
2022-08-26T09:15:14.599Z,22688.00
2022-08-26T09:15:59.880Z,20928.00
2022-08-26T09:16:07.604Z,24192.00
2022-08-26T09:17:00.014Z,20320.00
2022-08-26T09:17:59.830Z,19840.00
2022-08-26T09:18:59.908Z,21344.00
2022-08-26T09:19:59.829Z,23008.00
2022-08-26T09:20:59.809Z,22816.00
2022-08-26T09:21:59.784Z,21696.00
2022-08-26T09:22:59.790Z,22784.00
2022-08-26T09:23:59.791Z,23328.00
2022-08-26T09:24:59.759Z,23488.00
2022-08-26T09:25:59.765Z,23776.00
2022-08-26T09:26:59.734Z,23872.00
2022-08-26T09:27:59.753Z,24576.00
2022-08-26T09:28:59.710Z,25312.00
2022-08-26T09:29:59.714Z,25696.00
2022-08-26T09:30:59.779Z,25504.00
2022-08-26T09:31:59.779Z,26016.00
2022-08-26T09:32:59.674Z,26304.00
2022-08-26T09:33:59.663Z,26368.00
2022-08-26T09:34:59.669Z,26528.00
2022-08-26T09:35:59.674Z,26848.00
2022-08-26T09:36:59.628Z,26592.00
2022-08-26T09:37:59.628Z,27168.00
2022-08-26T09:38:59.597Z,27456.00
2022-08-26T09:39:59.639Z,27712.00
2022-08-26T09:40:59.717Z,27456.00
2022-08-26T09:41:59.586Z,27552.00
2022-08-26T09:42:59.582Z,27552.00
2022-08-26T09:43:59.572Z,27680.00
2022-08-26T09:44:59.570Z,27168.00
2022-08-26T09:45:59.938Z,27168.00
2022-08-26T09:46:59.589Z,27136.00
2022-08-26T09:48:01.261Z,27520.00
2022-08-26T09:48:59.500Z,28000.00
2022-08-26T09:49:59.505Z,27904.00
2022-08-26T09:51:00.776Z,28096.00
2022-08-26T09:51:59.485Z,28192.00
2022-08-26T09:52:59.489Z,28512.00
2022-08-26T09:53:59.480Z,28640.00
2022-08-26T09:54:59.434Z,27520.00
2022-08-26T09:55:59.467Z,25568.00
2022-08-26T09:56:59.414Z,23008.00
2022-08-26T09:58:03.624Z,21408.00
2022-08-26T09:58:59.482Z,20416.00
2022-08-26T09:59:59.391Z,20480.00
2022-08-26T10:01:00.937Z,17088.00
2022-08-26T10:01:59.409Z,14672.00
2022-08-26T10:02:59.421Z,14952.00
2022-08-26T10:03:59.565Z,15820.00
2022-08-26T10:04:59.353Z,18464.00
2022-08-26T10:05:59.383Z,20192.00
2022-08-26T10:06:59.322Z,20640.00
2022-08-26T10:07:59.686Z,19872.00
2022-08-26T10:08:59.356Z,19104.00
2022-08-26T10:09:59.288Z,19648.00
2022-08-26T10:10:59.278Z,22080.00
2022-08-26T10:11:59.269Z,25664.00
2022-08-26T10:12:59.273Z,27072.00
2022-08-26T10:13:59.288Z,28544.00
2022-08-26T10:14:59.235Z,28736.00
2022-08-26T10:15:59.471Z,31008.00
2022-08-26T10:16:59.318Z,30912.00
2022-08-26T10:17:59.250Z,30368.00
2022-08-26T10:19:00.282Z,29760.00
2022-08-26T10:19:59.181Z,27744.00
2022-08-26T10:20:59.177Z,29056.00
2022-08-26T10:22:04.783Z,29056.00
2022-08-26T10:22:59.144Z,26880.00
2022-08-26T10:23:59.144Z,25344.00
2022-08-26T10:24:59.143Z,25184.00
2022-08-26T10:25:59.376Z,25568.00
2022-08-26T10:26:59.097Z,25888.00
2022-08-26T10:27:59.097Z,25344.00
2022-08-26T10:28:59.107Z,25440.00
2022-08-26T10:29:59.062Z,25760.00
2022-08-26T10:30:59.051Z,26240.00
2022-08-26T10:32:03.428Z,26528.00
2022-08-26T10:32:59.044Z,27552.00
2022-08-26T10:34:00.421Z,27584.00
2022-08-26T10:34:59.015Z,28288.00
2022-08-26T10:35:59.018Z,29344.00
2022-08-26T10:37:14.784Z,30688.00
2022-08-26T10:37:58.977Z,30528.00
2022-08-26T10:38:58.967Z,30624.00
2022-08-26T10:39:59.405Z,30112.00
2022-08-26T10:40:58.977Z,30016.00
2022-08-26T10:41:58.943Z,29952.00
2022-08-26T10:42:58.945Z,27840.00
2022-08-26T10:43:58.950Z,26080.00
2022-08-26T10:44:58.912Z,26912.00
2022-08-26T10:45:59.005Z,28288.00
2022-08-26T10:46:58.892Z,28832.00
2022-08-26T10:47:58.887Z,29184.00
2022-08-26T10:48:59.904Z,29088.00
2022-08-26T10:50:03.410Z,28416.00
2022-08-26T10:50:58.858Z,27328.00
2022-08-26T10:51:58.836Z,26688.00
2022-08-26T10:52:58.974Z,26816.00
2022-08-26T10:53:58.808Z,24896.00
2022-08-26T10:54:58.799Z,22656.00
2022-08-26T10:55:58.809Z,22464.00
2022-08-26T10:56:58.777Z,25472.00
2022-08-26T10:57:58.779Z,27680.00
2022-08-26T11:00:08.039Z,29792.00
2022-08-26T11:01:10.587Z,29568.00
2022-08-26T11:02:08.760Z,28832.00
2022-08-26T11:03:13.681Z,27808.00
2022-08-26T11:04:08.743Z,27392.00
2022-08-26T11:05:08.657Z,27840.00
2022-08-26T11:06:09.065Z,28320.00
2022-08-26T11:07:08.633Z,28640.00
2022-08-26T11:08:08.783Z,29120.00
2022-08-26T11:09:08.619Z,27808.00
2022-08-26T11:10:08.653Z,29152.00
2022-08-26T11:11:08.583Z,27776.00
2022-08-26T11:12:10.241Z,28512.00
2022-08-26T11:13:08.727Z,29408.00
2022-08-26T11:14:08.554Z,29632.00
2022-08-26T11:15:08.578Z,26112.00
2022-08-26T11:16:08.640Z,28192.00
2022-08-26T11:17:08.544Z,29216.00
2022-08-26T11:18:08.704Z,30144.00
2022-08-26T11:19:08.521Z,30688.00
2022-08-26T11:20:13.494Z,30368.00
2022-08-26T11:21:10.314Z,30720.00
2022-08-26T11:22:08.475Z,30816.00
2022-08-26T11:23:08.461Z,30016.00
2022-08-26T11:24:08.472Z,25760.00
2022-08-26T11:25:08.441Z,22976.00
2022-08-26T11:26:08.699Z,22048.00
2022-08-26T11:27:08.441Z,25472.00
2022-08-26T11:28:08.601Z,26752.00
2022-08-26T11:29:13.125Z,27360.00
2022-08-26T11:30:08.410Z,27840.00
2022-08-26T11:31:08.433Z,27392.00
2022-08-26T11:32:08.368Z,25376.00
2022-08-26T11:33:08.701Z,24320.00
2022-08-26T11:34:10.760Z,22464.00
2022-08-26T11:35:08.334Z,20384.00
2022-08-26T11:36:12.168Z,21664.00
2022-08-26T11:37:08.411Z,22080.00
2022-08-26T11:38:08.555Z,22720.00
2022-08-26T11:39:08.320Z,21760.00
2022-08-26T11:40:08.349Z,22368.00
2022-08-26T11:41:08.275Z,20736.00
2022-08-26T11:42:08.282Z,21120.00
2022-08-26T11:43:08.250Z,21152.00
2022-08-26T11:44:08.249Z,21408.00
2022-08-26T11:45:08.248Z,20128.00
2022-08-26T11:46:09.221Z,22848.00
2022-08-26T11:47:11.360Z,23840.00
2022-08-26T11:48:08.399Z,24448.00
2022-08-26T11:49:08.193Z,24192.00
2022-08-26T11:50:08.211Z,23936.00
2022-08-26T11:51:08.454Z,22784.00
2022-08-26T11:52:08.177Z,21056.00
2022-08-26T11:53:08.149Z,18688.00
2022-08-26T11:54:08.139Z,17312.00
2022-08-26T11:55:08.142Z,16800.00
2022-08-26T11:56:08.140Z,17056.00
2022-08-26T11:57:11.765Z,17888.00
2022-08-26T11:58:08.352Z,19264.00
2022-08-26T11:59:08.190Z,22240.00
2022-08-26T12:00:09.473Z,25536.00
2022-08-26T12:01:09.797Z,28288.00
2022-08-26T12:02:08.120Z,29312.00
2022-08-26T12:03:08.380Z,30368.00
2022-08-26T12:04:08.233Z,30080.00
2022-08-26T12:05:08.024Z,27264.00
2022-08-26T12:06:08.013Z,27104.00
2022-08-26T12:07:08.636Z,28000.00
2022-08-26T12:08:08.273Z,28832.00
2022-08-26T12:09:08.936Z,28352.00
2022-08-26T12:10:07.967Z,28000.00
2022-08-26T12:11:07.958Z,27104.00
2022-08-26T12:12:07.954Z,26688.00
2022-08-26T12:13:07.968Z,25632.00
2022-08-26T12:14:07.952Z,23776.00
2022-08-26T12:15:07.936Z,24000.00
2022-08-26T12:16:07.980Z,23968.00
2022-08-26T12:17:07.894Z,28800.00
2022-08-26T12:18:08.033Z,30240.00
2022-08-26T12:19:07.924Z,30272.00
2022-08-26T12:20:07.872Z,29824.00
2022-08-26T12:21:07.849Z,28576.00
2022-08-26T12:22:07.848Z,27648.00
2022-08-26T12:23:07.829Z,27360.00
2022-08-26T12:24:08.722Z,25728.00
2022-08-26T12:25:07.820Z,24832.00
2022-08-26T12:26:07.801Z,23744.00
2022-08-26T12:27:07.789Z,23680.00
2022-08-26T12:28:08.009Z,23328.00
2022-08-26T12:29:10.802Z,23488.00
2022-08-26T12:30:08.315Z,23296.00
2022-08-26T12:31:07.760Z,22848.00
2022-08-26T12:32:07.734Z,22048.00
2022-08-26T12:33:19.925Z,21152.00
2022-08-26T12:34:07.716Z,20032.00
2022-08-26T12:35:07.709Z,19744.00
2022-08-26T12:36:07.691Z,18592.00
2022-08-26T12:37:07.681Z,16576.00
2022-08-26T12:38:07.824Z,15500.00
2022-08-26T12:39:07.684Z,15024.00
2022-08-26T12:40:07.735Z,14112.00
2022-08-26T12:41:07.657Z,13108.00
2022-08-26T12:42:07.633Z,12552.00
2022-08-26T12:43:07.622Z,12416.00
2022-08-26T12:44:07.609Z,12364.00
2022-08-26T12:45:07.613Z,12548.00
2022-08-26T12:46:07.691Z,12984.00
2022-08-26T12:47:07.589Z,13244.00
2022-08-26T12:48:07.753Z,13376.00
2022-08-26T12:49:07.558Z,13496.00
2022-08-26T12:50:07.551Z,13540.00
2022-08-26T12:51:07.573Z,13748.00
2022-08-26T12:52:07.532Z,13832.00
2022-08-26T12:53:07.527Z,14168.00
2022-08-26T12:54:07.514Z,14560.00
2022-08-26T12:55:07.496Z,15096.00
2022-08-26T12:56:08.627Z,15840.00
2022-08-26T12:57:07.520Z,16768.00
2022-08-26T12:58:07.618Z,16992.00
2022-08-26T12:59:07.460Z,16864.00
2022-08-26T13:01:16.590Z,16864.00
2022-08-26T13:02:17.550Z,16384.00
2022-08-26T13:03:17.407Z,17728.00
2022-08-26T13:04:17.375Z,18784.00
2022-08-26T13:05:17.389Z,20320.00
2022-08-26T13:06:17.364Z,21376.00
2022-08-26T13:07:17.346Z,21536.00
2022-08-26T13:08:17.332Z,21600.00
2022-08-26T13:09:17.321Z,21728.00
2022-08-26T13:10:17.313Z,21472.00
2022-08-26T13:11:17.333Z,21056.00
2022-08-26T13:12:17.295Z,20704.00
2022-08-26T13:13:17.292Z,20288.00
2022-08-26T13:14:23.763Z,19776.00
2022-08-26T13:15:17.258Z,18912.00
2022-08-26T13:16:17.310Z,19200.00
2022-08-26T13:17:17.249Z,19008.00
2022-08-26T13:18:17.222Z,19136.00
2022-08-26T13:19:17.210Z,19168.00
2022-08-26T13:20:17.217Z,18592.00
2022-08-26T13:21:17.188Z,17664.00
2022-08-26T13:22:17.183Z,17344.00
2022-08-26T13:23:17.178Z,17376.00
2022-08-26T13:24:18.342Z,17632.00
2022-08-26T13:25:19.683Z,17824.00
2022-08-26T13:26:17.141Z,17696.00
2022-08-26T13:27:17.132Z,17696.00
2022-08-26T13:28:17.129Z,17728.00
2022-08-26T13:29:17.109Z,17888.00
2022-08-26T13:30:17.113Z,18112.00
2022-08-26T13:31:17.673Z,18528.00
2022-08-26T13:32:17.070Z,18624.00
2022-08-26T13:33:17.059Z,18560.00
2022-08-26T13:34:17.088Z,18464.00
2022-08-26T13:35:17.062Z,18464.00
2022-08-26T13:36:17.033Z,18368.00
2022-08-26T13:37:17.024Z,17952.00
2022-08-26T13:38:18.569Z,17856.00
2022-08-26T13:39:17.000Z,17920.00
2022-08-26T13:40:17.075Z,18080.00
2022-08-26T13:41:16.972Z,18080.00
2022-08-26T13:42:16.966Z,17760.00
2022-08-26T13:43:16.972Z,17344.00
2022-08-26T13:44:16.957Z,17376.00
2022-08-26T13:45:16.949Z,17952.00
2022-08-26T13:46:16.995Z,18400.00
2022-08-26T13:47:16.914Z,18464.00
2022-08-26T13:48:19.259Z,18016.00
2022-08-26T13:49:16.891Z,16832.00
2022-08-26T13:50:16.913Z,15648.00
2022-08-26T13:51:16.884Z,15352.00
2022-08-26T13:52:16.867Z,14824.00
2022-08-26T13:53:16.857Z,17056.00
2022-08-26T13:54:16.852Z,17376.00
2022-08-26T13:55:16.857Z,17248.00
2022-08-26T13:56:16.817Z,17024.00
2022-08-26T13:57:16.807Z,16640.00
2022-08-26T13:58:16.796Z,16160.00
2022-08-26T13:59:16.807Z,15224.00
2022-08-26T14:00:16.791Z,14856.00
2022-08-26T14:01:16.789Z,14820.00
2022-08-26T14:02:16.752Z,14988.00
2022-08-26T14:03:16.782Z,14872.00
2022-08-26T14:04:16.733Z,13548.00
2022-08-26T14:05:16.732Z,12176.00
2022-08-26T14:06:16.704Z,11252.00
2022-08-26T14:07:16.694Z,10632.00
2022-08-26T14:08:16.687Z,9516.00
2022-08-26T14:09:16.672Z,8740.00
2022-08-26T14:10:16.663Z,8032.00
2022-08-26T14:11:16.795Z,7368.00
2022-08-26T14:12:16.640Z,6836.00
2022-08-26T14:13:16.634Z,6288.00
2022-08-26T14:14:16.628Z,5736.00
2022-08-26T14:15:16.638Z,5180.00